Check out our new BloomSky Weather System.

Active alerts


No alerts


Thunder radar  blitzortung!


Rain radar more information rain snow radar


Visit our other weather sites:

Template documentation
and downloads

And another site



Weather Underground History page Text

Daily Summary for February 23, 2017 Units:  Metric    English   Both
« Previous Day
Next Day »
Daily Weekly Monthly Yearly Custom
  High: Low: Average:
Temperature: 29 °C 10.7 °C 19.9 °C
Dew Point: 18.3 °C 9.4 °C 14.2 °C
Humidity: 98 % 41 % 73 %
Wind Speed: 24.1 km/h 0 km/h 6.3 km/h
Wind Gust: 27.4 km/h - -
Wind:- - SE
Pressure: 1008.4 hPa 1002.9 hPa -
Precipitation: 0 mm    
Historical Graphs
 
 
Tabular Data for February 23, 2017
Time Temperature Dew Point Pressure Wind Wind Speed Wind Gust Humidity Rainfall Rate (Hourly)
00:03 16.2 °C 11.4 °C 1007.7 hPa Calm   1.6 km/h 73 % 0 mm
00:08 16.1 °C 11.5 °C 1007.7 hPa Calm   1.6 km/h 74 % 0 mm
00:13 16.1 °C 11.5 °C 1007.7 hPa Calm   1.6 km/h 74 % 0 mm
00:18 16 °C 11.4 °C 1007.7 hPa Calm   1.6 km/h 74 % 0 mm
00:23 15.9 °C 11.3 °C 1007.3 hPa Calm   1.6 km/h 74 % 0 mm
00:28 15.9 °C 11.3 °C 1007.3 hPa ESE 1.6 km/h 1.6 km/h 74 % 0 mm
00:33 15.8 °C 11.2 °C 1007.3 hPa Calm   1.6 km/h 74 % 0 mm
00:38 15.7 °C 11.1 °C 1007.3 hPa Calm   1.6 km/h 74 % 0 mm
00:43 15.5 °C 11.1 °C 1007.3 hPa Calm   1.6 km/h 75 % 0 mm
00:49 15.4 °C 10.8 °C 1007.3 hPa SE 1.6 km/h 1.6 km/h 74 % 0 mm
00:54 15.4 °C 10.8 °C 1007.3 hPa Calm   1.6 km/h 74 % 0 mm
00:59 15.3 °C 10.7 °C 1007.3 hPa Calm   1.6 km/h 74 % 0 mm
01:04 15.1 °C 10.5 °C 1007.3 hPa Calm   1.6 km/h 74 % 0 mm
01:09 14.9 °C 10.5 °C 1007.3 hPa Calm   1.6 km/h 75 % 0 mm
01:14 14.7 °C 10.5 °C 1007.3 hPa Calm   1.6 km/h 76 % 0 mm
01:19 14.4 °C 10 °C 1007.3 hPa Calm     75 % 0 mm
01:24 14.1 °C 9.9 °C 1007.3 hPa Calm     76 % 0 mm
01:29 13.8 °C 10 °C 1007 hPa Calm     78 % 0 mm
01:34 13.6 °C 10 °C 1007 hPa Calm     79 % 0 mm
01:39 13.6 °C 10.2 °C 1007 hPa Calm     80 % 0 mm
01:44 13.4 °C 10 °C 1007 hPa Calm     80 % 0 mm
01:49 13.3 °C 10.1 °C 1007 hPa Calm     81 % 0 mm
01:54 13.3 °C 10.1 °C 1007 hPa Calm     81 % 0 mm
01:59 13.2 °C 10 °C 1007 hPa Calm     81 % 0 mm
02:04 13.1 °C 10.1 °C 1007 hPa Calm     82 % 0 mm
02:09 12.9 °C 9.9 °C 1007 hPa Calm     82 % 0 mm
02:14 12.8 °C 10 °C 1007 hPa Calm     83 % 0 mm
02:19 12.8 °C 10.2 °C 1007 hPa Calm     84 % 0 mm
02:24 12.7 °C 9.9 °C 1006.7 hPa Calm     83 % 0 mm
02:29 12.4 °C 9.8 °C 1006.7 hPa Calm     84 % 0 mm
02:34 12.2 °C 9.6 °C 1006.7 hPa Calm     84 % 0 mm
02:39 12.2 °C 9.9 °C 1006.7 hPa Calm     86 % 0 mm
02:44 12.2 °C 9.9 °C 1006.7 hPa Calm     86 % 0 mm
02:49 12.1 °C 10 °C 1006.7 hPa Calm     87 % 0 mm
02:55 12.2 °C 10.1 °C 1006.7 hPa Calm     87 % 0 mm
03:00 12.1 °C 10 °C 1006.7 hPa Calm     87 % 0 mm
03:05 11.9 °C 9.8 °C 1006.7 hPa Calm     87 % 0 mm
03:10 11.7 °C 9.6 °C 1006.7 hPa Calm     87 % 0 mm
03:15 11.7 °C 9.8 °C 1006.7 hPa Calm     88 % 0 mm
03:20 11.7 °C 9.9 °C 1006.7 hPa Calm     89 % 0 mm
03:25 11.8 °C 10 °C 1006.7 hPa Calm     89 % 0 mm
03:30 11.7 °C 9.8 °C 1006.7 hPa Calm     88 % 0 mm
03:35 11.6 °C 9.8 °C 1006.7 hPa Calm     89 % 0 mm
03:40 11.3 °C 9.4 °C 1006.7 hPa Calm     88 % 0 mm
03:45 11.2 °C 9.6 °C 1006.7 hPa Calm     90 % 0 mm
03:50 11.3 °C 9.7 °C 1006.7 hPa Calm     90 % 0 mm
03:55 11.2 °C 9.6 °C 1006.7 hPa Calm     90 % 0 mm
04:00 11.2 °C 9.8 °C 1006.7 hPa Calm     91 % 0 mm
04:05 11.2 °C 9.8 °C 1006.7 hPa Calm     91 % 0 mm
04:10 11.2 °C 9.8 °C 1006.7 hPa Calm     91 % 0 mm
04:15 11.2 °C 9.8 °C 1006.7 hPa Calm     91 % 0 mm
04:20 11.2 °C 9.8 °C 1006.7 hPa Calm     91 % 0 mm
04:25 11 °C 9.6 °C 1006.7 hPa Calm     91 % 0 mm
04:26 11 °C 9.6 °C 1006.7 hPa Calm     91 % 0 mm
04:31 10.9 °C 9.5 °C 1006.7 hPa Calm     91 % 0 mm
04:33 10.8 °C 9.4 °C 1006.7 hPa Calm     91 % 0 mm
04:38 10.9 °C 9.7 °C 1006.7 hPa Calm     92 % 0 mm
04:43 11 °C 9.8 °C 1006.7 hPa Calm   1.6 km/h 92 % 0 mm
04:48 11.1 °C 9.8 °C 1006.7 hPa Calm   1.6 km/h 92 % 0 mm
04:53 10.9 °C 9.5 °C 1006.7 hPa Calm   1.6 km/h 91 % 0 mm
04:58 10.8 °C 9.6 °C 1006.7 hPa Calm     92 % 0 mm
05:03 11 °C 9.9 °C 1006.7 hPa Calm     93 % 0 mm
05:08 11 °C 9.9 °C 1006.7 hPa Calm     93 % 0 mm
05:13 11 °C 9.8 °C 1006.7 hPa Calm     92 % 0 mm
05:18 11 °C 9.9 °C 1007 hPa Calm     93 % 0 mm
05:23 10.9 °C 9.8 °C 1006.7 hPa Calm     93 % 0 mm
05:28 10.9 °C 9.8 °C 1006.7 hPa Calm     93 % 0 mm
05:33 10.8 °C 9.7 °C 1006.7 hPa Calm     93 % 0 mm
05:38 10.8 °C 9.7 °C 1007 hPa Calm     93 % 0 mm
05:44 10.8 °C 9.7 °C 1006.7 hPa Calm     93 % 0 mm
05:49 10.9 °C 10 °C 1007 hPa Calm   1.6 km/h 94 % 0 mm
05:54 10.9 °C 10 °C 1007 hPa Calm   1.6 km/h 94 % 0 mm
05:59 10.9 °C 10 °C 1007 hPa Calm   1.6 km/h 94 % 0 mm
06:04 10.8 °C 9.9 °C 1007 hPa Calm     94 % 0 mm
06:09 10.7 °C 9.8 °C 1007 hPa Calm     94 % 0 mm
06:14 10.9 °C 10.1 °C 1007 hPa Calm   1.6 km/h 95 % 0 mm
06:19 10.9 °C 10.1 °C 1007 hPa Calm   1.6 km/h 95 % 0 mm
06:24 10.9 °C 10.1 °C 1007.3 hPa Calm   1.6 km/h 95 % 0 mm
06:29 10.9 °C 10.1 °C 1007 hPa Calm   1.6 km/h 95 % 0 mm
06:34 10.9 °C 10.1 °C 1007.3 hPa Calm   1.6 km/h 95 % 0 mm
06:39 11 °C 10.2 °C 1007.3 hPa Calm   1.6 km/h 95 % 0 mm
06:44 11.1 °C 10.3 °C 1007.3 hPa Calm   1.6 km/h 95 % 0 mm
06:49 11.2 °C 10.6 °C 1007.3 hPa Calm   1.6 km/h 96 % 0 mm
06:54 11.2 °C 10.4 °C 1007.3 hPa Calm   1.6 km/h 95 % 0 mm
06:59 11.2 °C 10.4 °C 1007.3 hPa Calm   1.6 km/h 95 % 0 mm
07:04 11.2 °C 10.4 °C 1007.3 hPa Calm   1.6 km/h 95 % 0 mm
07:09 11.3 °C 10.7 °C 1007.3 hPa Calm   1.6 km/h 96 % 0 mm
07:10 11.3 °C 10.7 °C 1007.3 hPa Calm   1.6 km/h 96 % 0 mm
07:15 11.4 °C 10.8 °C 1007.3 hPa Calm   1.6 km/h 96 % 0 mm
07:20 11.6 °C 11 °C 1007.3 hPa Calm   1.6 km/h 96 % 0 mm
07:25 11.8 °C 11.2 °C 1007.7 hPa Calm   1.6 km/h 96 % 0 mm
07:30 12.1 °C 11.6 °C 1007.7 hPa Calm   1.6 km/h 97 % 0 mm
07:35 12.3 °C 11.7 °C 1007.7 hPa Calm   1.6 km/h 96 % 0 mm
07:40 12.6 °C 12 °C 1007.7 hPa Calm   1.6 km/h 96 % 0 mm
07:45 12.9 °C 12.4 °C 1007.7 hPa Calm   1.6 km/h 97 % 0 mm
07:50 13.4 °C 12.9 °C 1007.7 hPa Calm   1.6 km/h 97 % 0 mm
07:55 14.2 °C 13.9 °C 1007.7 hPa Calm   3.2 km/h 98 % 0 mm
08:00 14.9 °C 14.4 °C 1007.7 hPa SE 1.6 km/h 3.2 km/h 97 % 0 mm
08:05 15.5 °C 15 °C 1007.7 hPa ESE 6.4 km/h 6.4 km/h 97 % 0 mm
08:11 16.1 °C 15.5 °C 1007.7 hPa SE 1.6 km/h 6.4 km/h 96 % 0 mm
08:16 16.7 °C 15.9 °C 1008 hPa SSE 3.2 km/h 6.4 km/h 95 % 0 mm
08:21 17.2 °C 16.2 °C 1008 hPa SSE 3.2 km/h 11.3 km/h 94 % 0 mm
08:26 17.7 °C 16.6 °C 1008 hPa South 3.2 km/h 11.3 km/h 93 % 0 mm
08:31 18.2 °C 16.9 °C 1008 hPa South 8 km/h 11.3 km/h 92 % 0 mm
08:36 18.4 °C 16.9 °C 1008 hPa SE 6.4 km/h 9.7 km/h 91 % 0 mm
08:41 18.7 °C 17.2 °C 1008 hPa SSE 1.6 km/h 11.3 km/h 91 % 0 mm
08:46 19.1 °C 17.4 °C 1008 hPa SSW 8 km/h 11.3 km/h 90 % 0 mm
08:51 19.3 °C 17.4 °C 1008 hPa SE 6.4 km/h 12.9 km/h 89 % 0 mm
08:56 19.6 °C 17.7 °C 1008 hPa SSE 4.8 km/h 12.9 km/h 89 % 0 mm
09:01 19.9 °C 17.7 °C 1008 hPa SE 3.2 km/h 12.9 km/h 87 % 0 mm
09:06 20.3 °C 17.9 °C 1008.4 hPa SSW 9.7 km/h 12.9 km/h 86 % 0 mm
09:11 20.7 °C 18.3 °C 1008 hPa ESE 9.7 km/h 12.9 km/h 86 % 0 mm
09:16 20.9 °C 18.1 °C 1008 hPa SSE 8 km/h 16.1 km/h 84 % 0 mm
09:21 21.2 °C 18.2 °C 1008 hPa SSE 6.4 km/h 16.1 km/h 83 % 0 mm
09:26 21.6 °C 18 °C 1008.4 hPa SSE 4.8 km/h 16.1 km/h 80 % 0 mm
09:31 21.8 °C 18 °C 1008.4 hPa South 4.8 km/h 14.5 km/h 79 % 0 mm
09:36 22 °C 17.8 °C 1008.4 hPa SSW 16.1 km/h 16.1 km/h 77 % 0 mm
09:41 22.1 °C 17.7 °C 1008.4 hPa South 8 km/h 20.9 km/h 76 % 0 mm
09:46 22.3 °C 17.4 °C 1008 hPa ESE 14.5 km/h 20.9 km/h 74 % 0 mm
09:51 22.4 °C 17.1 °C 1008 hPa ESE 9.7 km/h 20.9 km/h 72 % 0 mm
09:57 22.7 °C 17.4 °C 1008.4 hPa South 11.3 km/h 19.3 km/h 72 % 0 mm
10:02 23.1 °C 17.6 °C 1008.4 hPa SSE 9.7 km/h 19.3 km/h 71 % 0 mm
10:07 23.3 °C 17.1 °C 1008.4 hPa South 8 km/h 19.3 km/h 68 % 0 mm
10:12 23.5 °C 17 °C 1008.4 hPa ESE 12.9 km/h 19.3 km/h 67 % 0 mm
10:17 23.5 °C 16.8 °C 1008 hPa SE 8 km/h 20.9 km/h 66 % 0 mm
10:22 23.6 °C 17.1 °C 1008 hPa SE 8 km/h 20.9 km/h 67 % 0 mm
10:27 23.8 °C 17.3 °C 1008 hPa SE 4.8 km/h 20.9 km/h 67 % 0 mm
10:32 24.1 °C 16.9 °C 1008 hPa SE 9.7 km/h 19.3 km/h 64 % 0 mm
10:37 24.2 °C 17.2 °C 1008 hPa SSE 12.9 km/h 17.7 km/h 65 % 0 mm
10:42 24.3 °C 16 °C 1008 hPa SE 12.9 km/h 17.7 km/h 60 % 0 mm
10:47 24.4 °C 16.1 °C 1007.7 hPa SSE 8 km/h 19.3 km/h 60 % 0 mm
10:52 24.8 °C 16 °C 1007.7 hPa SE 4.8 km/h 19.3 km/h 58 % 0 mm
10:57 25.1 °C 16 °C 1007.7 hPa SSW 11.3 km/h 19.3 km/h 57 % 0 mm
10:59 25.2 °C 15.8 °C 1007.7 hPa South 8 km/h 19.3 km/h 56 % 0 mm
11:04 25.3 °C 16.2 °C 1007.3 hPa SW 8 km/h 19.3 km/h 57 % 0 mm
11:09 25.4 °C 14.8 °C 1007.3 hPa ESE 22.5 km/h 22.5 km/h 52 % 0 mm
11:14 25.6 °C 16.4 °C 1007.3 hPa SSE 9.7 km/h 22.5 km/h 57 % 0 mm
11:19 25.7 °C 16.3 °C 1007.3 hPa SSE 14.5 km/h 22.5 km/h 56 % 0 mm
11:24 25.9 °C 15.6 °C 1007.3 hPa SE 9.7 km/h 22.5 km/h 53 % 0 mm
11:29 25.9 °C 15.9 °C 1007 hPa South 9.7 km/h 16.1 km/h 54 % 0 mm
11:35 26.2 °C 16.4 °C 1007 hPa SSE 9.7 km/h 16.1 km/h 55 % 0 mm
11:40 26.3 °C 16 °C 1007 hPa ESE 11.3 km/h 16.1 km/h 53 % 0 mm
11:45 26.2 °C 15.3 °C 1006.7 hPa SSE 11.3 km/h 17.7 km/h 51 % 0 mm
11:50 26.3 °C 15.7 °C 1006.7 hPa ESE 11.3 km/h 19.3 km/h 52 % 0 mm
11:55 26.5 °C 14.9 °C 1006.7 hPa SE 4.8 km/h 19.3 km/h 49 % 0 mm
12:00 26.7 °C 15.4 °C 1006.7 hPa SSW 11.3 km/h 19.3 km/h 50 % 0 mm
12:05 26.7 °C 15.7 °C 1006.3 hPa South 9.7 km/h 17.7 km/h 51 % 0 mm
12:10 26.7 °C 14.8 °C 1006.3 hPa East 9.7 km/h 17.7 km/h 48 % 0 mm
12:15 26.9 °C 15.6 °C 1006 hPa SSE 6.4 km/h 17.7 km/h 50 % 0 mm
12:20 27.2 °C 15.6 °C 1006 hPa SE 9.7 km/h 17.7 km/h 49 % 0 mm
12:25 27.2 °C 14.9 °C 1006 hPa SSE 6.4 km/h 24.1 km/h 47 % 0 mm
12:30 27.3 °C 15.6 °C 1006 hPa ESE 9.7 km/h 24.1 km/h 49 % 0 mm
12:35 27.3 °C 15.3 °C 1005.6 hPa SE 9.7 km/h 24.1 km/h 48 % 0 mm
12:40 27.3 °C 15.3 °C 1005.6 hPa SSE 12.9 km/h 24.1 km/h 48 % 0 mm
12:45 27.3 °C 15.3 °C 1005.3 hPa SE 16.1 km/h 24.1 km/h 48 % 0 mm
12:50 27.3 °C 14.7 °C 1005.3 hPa SE 16.1 km/h 25.7 km/h 46 % 0 mm
12:55 27.5 °C 15.5 °C 1005 hPa SW 19.3 km/h 25.7 km/h 48 % 0 mm
13:01 27.6 °C 15.6 °C 1005 hPa SSW 12.9 km/h 25.7 km/h 48 % 0 mm
13:06 27.7 °C 15 °C 1005 hPa SSW 11.3 km/h 25.7 km/h 46 % 0 mm
13:11 27.8 °C 15.1 °C 1005 hPa SSW 9.7 km/h 27.4 km/h 46 % 0 mm
13:16 28 °C 15.6 °C 1005 hPa SSE 12.9 km/h 27.4 km/h 47 % 0 mm
13:21 28.2 °C 16.1 °C 1005 hPa SSW 9.7 km/h 22.5 km/h 48 % 0 mm
13:26 28.3 °C 15.6 °C 1005 hPa SSW 9.7 km/h 20.9 km/h 46 % 0 mm
13:31 28.3 °C 15.6 °C 1005 hPa SW 11.3 km/h 20.9 km/h 46 % 0 mm
13:36 28.3 °C 15.2 °C 1004.6 hPa South 6.4 km/h 20.9 km/h 45 % 0 mm
13:41 28.4 °C 15.3 °C 1004.6 hPa ESE 20.9 km/h 20.9 km/h 45 % 0 mm
13:46 28.4 °C 15.3 °C 1004.6 hPa South 8 km/h 20.9 km/h 45 % 0 mm
13:51 28.5 °C 15.4 °C 1004.6 hPa South 12.9 km/h 22.5 km/h 45 % 0 mm
13:56 28.4 °C 14.6 °C 1004.3 hPa SE 6.4 km/h 22.5 km/h 43 % 0 mm
14:01 28.5 °C 14.7 °C 1004.3 hPa SSE 16.1 km/h 22.5 km/h 43 % 0 mm
14:06 28.6 °C 15.5 °C 1004.3 hPa SSE 12.9 km/h 20.9 km/h 45 % 0 mm
14:11 28.7 °C 14.9 °C 1004.3 hPa SE 6.4 km/h 20.9 km/h 43 % 0 mm
14:16 28.8 °C 15.3 °C 1004.3 hPa SW 9.7 km/h 19.3 km/h 44 % 0 mm
14:21 28.8 °C 15 °C 1004.3 hPa SSE 3.2 km/h 19.3 km/h 43 % 0 mm
14:26 29 °C 15.2 °C 1003.9 hPa SSE 6.4 km/h 19.3 km/h 43 % 0 mm
14:31 28.9 °C 15.1 °C 1003.9 hPa SE 6.4 km/h 19.3 km/h 43 % 0 mm
14:36 28.8 °C 14.6 °C 1003.9 hPa SE 8 km/h 20.9 km/h 42 % 0 mm
14:41 28.9 °C 14.7 °C 1003.9 hPa SSE 8 km/h 20.9 km/h 42 % 0 mm
14:46 28.9 °C 15.1 °C 1003.9 hPa SSW 11.3 km/h 20.9 km/h 43 % 0 mm
14:51 28.8 °C 14.6 °C 1003.9 hPa SE 4.8 km/h 19.3 km/h 42 % 0 mm
14:56 28.9 °C 15.1 °C 1003.9 hPa South 14.5 km/h 19.3 km/h 43 % 0 mm
15:01 28.8 °C 15 °C 1003.6 hPa SE 6.4 km/h 22.5 km/h 43 % 0 mm
15:06 28.9 °C 14.7 °C 1003.6 hPa South 12.9 km/h 22.5 km/h 42 % 0 mm
15:11 28.9 °C 15.1 °C 1003.6 hPa SE 8 km/h 22.5 km/h 43 % 0 mm
15:16 28.8 °C 14.2 °C 1003.6 hPa South 11.3 km/h 25.7 km/h 41 % 0 mm
15:21 28.8 °C 15.3 °C 1003.6 hPa SE 4.8 km/h 25.7 km/h 44 % 0 mm
15:26 28.9 °C 15.4 °C 1003.6 hPa SE 8 km/h 25.7 km/h 44 % 0 mm
15:31 28.9 °C 15.4 °C 1003.6 hPa East 24.1 km/h 24.1 km/h 44 % 0 mm
15:36 28.7 °C 15.2 °C 1003.6 hPa ESE 8 km/h 27.4 km/h 44 % 0 mm
15:42 28.8 °C 15.3 °C 1003.6 hPa East 9.7 km/h 27.4 km/h 44 % 0 mm
15:47 28.8 °C 15.3 °C 1003.3 hPa SSE 11.3 km/h 27.4 km/h 44 % 0 mm
15:52 28.8 °C 15.7 °C 1003.3 hPa SE 9.7 km/h 19.3 km/h 45 % 0 mm
15:57 28.6 °C 15.8 °C 1003.3 hPa ESE 14.5 km/h 20.9 km/h 46 % 0 mm
16:02 28.4 °C 15.7 °C 1003.3 hPa South 8 km/h 22.5 km/h 46 % 0 mm
16:07 28.3 °C 15.6 °C 1003.3 hPa SE 6.4 km/h 22.5 km/h 46 % 0 mm
16:12 28.3 °C 15.9 °C 1003.3 hPa SSE 14.5 km/h 22.5 km/h 47 % 0 mm
16:17 28.2 °C 16.1 °C 1003.3 hPa South 16.1 km/h 22.5 km/h 48 % 0 mm
16:22 28.1 °C 16.1 °C 1003.3 hPa SSE 11.3 km/h 22.5 km/h 48 % 0 mm
16:27 28 °C 16 °C 1002.9 hPa SSE 14.5 km/h 24.1 km/h 48 % 0 mm
16:32 27.9 °C 16.2 °C 1002.9 hPa SSE 8 km/h 24.1 km/h 49 % 0 mm
16:37 27.9 °C 16.2 °C 1002.9 hPa SSE 9.7 km/h 24.1 km/h 49 % 0 mm
16:42 27.8 °C 16.1 °C 1002.9 hPa SE 16.1 km/h 22.5 km/h 49 % 0 mm
16:47 27.6 °C 16.2 °C 1003.3 hPa SE 11.3 km/h 24.1 km/h 50 % 0 mm
16:52 27.4 °C 16.4 °C 1003.3 hPa SE 17.7 km/h 24.1 km/h 51 % 0 mm
16:57 27.3 °C 16.3 °C 1003.3 hPa SSE 9.7 km/h 24.1 km/h 51 % 0 mm
17:02 27.2 °C 16.8 °C 1003.3 hPa South 16.1 km/h 24.1 km/h 53 % 0 mm
17:07 27 °C 16.6 °C 1003.3 hPa SSE 9.7 km/h 24.1 km/h 53 % 0 mm
17:12 26.7 °C 16.6 °C 1003.3 hPa SSE 8 km/h 20.9 km/h 54 % 0 mm
17:17 26.7 °C 16.9 °C 1003.3 hPa SE 9.7 km/h 20.9 km/h 55 % 0 mm
17:22 26.4 °C 16.6 °C 1003.3 hPa SE 19.3 km/h 24.1 km/h 55 % 0 mm
17:27 26.2 °C 17 °C 1003.3 hPa ESE 6.4 km/h 24.1 km/h 57 % 0 mm
17:32 26 °C 16.8 °C 1003.3 hPa SSE 6.4 km/h 24.1 km/h 57 % 0 mm
17:37 25.7 °C 16.8 °C 1003.3 hPa East 6.4 km/h 20.9 km/h 58 % 0 mm
17:42 25.6 °C 17 °C 1003.3 hPa ESE 9.7 km/h 22.5 km/h 59 % 0 mm
17:47 25.4 °C 16.8 °C 1003.3 hPa SSE 11.3 km/h 22.5 km/h 59 % 0 mm
17:52 25.2 °C 16.9 °C 1003.3 hPa SE 11.3 km/h 22.5 km/h 60 % 0 mm
17:57 25 °C 16.7 °C 1003.3 hPa East 16.1 km/h 22.5 km/h 60 % 0 mm
18:02 24.8 °C 16.8 °C 1003.3 hPa SSE 11.3 km/h 22.5 km/h 61 % 0 mm
18:07 24.5 °C 16.7 °C 1003.3 hPa SSE 8 km/h 22.5 km/h 62 % 0 mm
18:12 24.4 °C 16.6 °C 1003.3 hPa ESE 11.3 km/h 22.5 km/h 62 % 0 mm
18:17 24.2 °C 16.5 °C 1003.3 hPa ESE 17.7 km/h 19.3 km/h 62 % 0 mm
18:22 24 °C 16.5 °C 1003.3 hPa ESE 11.3 km/h 20.9 km/h 63 % 0 mm
18:27 23.8 °C 16.3 °C 1003.3 hPa SE 8 km/h 20.9 km/h 63 % 0 mm
18:32 23.6 °C 16.1 °C 1003.3 hPa ESE 9.7 km/h 20.9 km/h 63 % 0 mm
18:37 23.4 °C 16.2 °C 1003.3 hPa SE 9.7 km/h 19.3 km/h 64 % 0 mm
18:42 23.3 °C 15.9 °C 1003.6 hPa SSE 20.9 km/h 20.9 km/h 63 % 0 mm
18:47 23.1 °C 15.4 °C 1003.6 hPa SE 6.4 km/h 20.9 km/h 62 % 0 mm
18:52 22.9 °C 15.2 °C 1003.6 hPa ESE 11.3 km/h 20.9 km/h 62 % 0 mm
18:57 22.8 °C 14.9 °C 1003.6 hPa SE 8 km/h 20.9 km/h 61 % 0 mm
19:02 22.7 °C 14.5 °C 1003.6 hPa SE 11.3 km/h 20.9 km/h 60 % 0 mm
19:07 22.6 °C 14.7 °C 1003.6 hPa SE 22.5 km/h 22.5 km/h 61 % 0 mm
19:12 22.4 °C 14.5 °C 1003.6 hPa SE 11.3 km/h 22.5 km/h 61 % 0 mm
19:17 22.3 °C 14.4 °C 1003.6 hPa SE 12.9 km/h 22.5 km/h 61 % 0 mm
19:22 22.1 °C 14.5 °C 1003.9 hPa SSE 12.9 km/h 22.5 km/h 62 % 0 mm
19:27 22 °C 14.6 °C 1003.6 hPa SE 12.9 km/h 22.5 km/h 63 % 0 mm
19:32 21.8 °C 14.7 °C 1003.9 hPa East 8 km/h 20.9 km/h 64 % 0 mm
19:37 21.7 °C 14.8 °C 1003.9 hPa SE 9.7 km/h 20.9 km/h 65 % 0 mm
19:42 21.6 °C 15.2 °C 1003.9 hPa ESE 9.7 km/h 20.9 km/h 67 % 0 mm
19:47 21.4 °C 15.2 °C 1003.6 hPa SE 8 km/h 20.9 km/h 68 % 0 mm
19:52 21.3 °C 15.4 °C 1003.9 hPa ESE 6.4 km/h 20.9 km/h 69 % 0 mm
19:57 21.1 °C 15.4 °C 1003.9 hPa SSE 19.3 km/h 20.9 km/h 70 % 0 mm
20:03 21 °C 16 °C 1003.9 hPa SE 11.3 km/h 20.9 km/h 73 % 0 mm
20:08 20.8 °C 16 °C 1003.9 hPa East 17.7 km/h 20.9 km/h 74 % 0 mm
20:13 20.7 °C 16.3 °C 1003.9 hPa SE 16.1 km/h 20.9 km/h 76 % 0 mm
20:18 20.6 °C 16.4 °C 1003.9 hPa ESE 4.8 km/h 22.5 km/h 77 % 0 mm
20:23 20.5 °C 16.5 °C 1003.9 hPa ESE 11.3 km/h 22.5 km/h 78 % 0 mm
20:28 20.4 °C 16.6 °C 1003.9 hPa SE 4.8 km/h 22.5 km/h 79 % 0 mm
20:33 20.2 °C 16.6 °C 1003.9 hPa SSE 8 km/h 19.3 km/h 80 % 0 mm
20:38 20.2 °C 16.8 °C 1003.9 hPa SE 4.8 km/h 19.3 km/h 81 % 0 mm
20:43 20.1 °C 16.9 °C 1003.9 hPa SE 4.8 km/h 17.7 km/h 82 % 0 mm
20:48 20 °C 17 °C 1004.3 hPa SSE 3.2 km/h 17.7 km/h 83 % 0 mm
20:53 19.9 °C 16.9 °C 1004.3 hPa SSW 3.2 km/h 17.7 km/h 83 % 0 mm
20:58 19.8 °C 17 °C 1004.3 hPa SSE 4.8 km/h 14.5 km/h 84 % 0 mm
21:03 19.7 °C 16.9 °C 1004.3 hPa SE 6.4 km/h 12.9 km/h 84 % 0 mm
21:08 19.7 °C 17.1 °C 1004.3 hPa SSE 8 km/h 12.9 km/h 85 % 0 mm
21:13 19.6 °C 17 °C 1004.3 hPa SE 4.8 km/h 12.9 km/h 85 % 0 mm
21:18 19.6 °C 17 °C 1004.3 hPa SE 3.2 km/h 12.9 km/h 85 % 0 mm
21:23 19.5 °C 17.1 °C 1004.3 hPa SE 3.2 km/h 11.3 km/h 86 % 0 mm
21:28 19.4 °C 17 °C 1004.3 hPa ESE 3.2 km/h 12.9 km/h 86 % 0 mm
21:33 19.4 °C 17.2 °C 1004.6 hPa SSE 4.8 km/h 12.9 km/h 87 % 0 mm
21:38 19.3 °C 17.1 °C 1004.6 hPa SE 6.4 km/h 12.9 km/h 87 % 0 mm
21:43 19.2 °C 17 °C 1004.6 hPa SE 4.8 km/h 11.3 km/h 87 % 0 mm
21:48 19.2 °C 17.2 °C 1004.6 hPa ESE 3.2 km/h 9.7 km/h 88 % 0 mm
21:53 19.1 °C 17.1 °C 1004.6 hPa SSE 3.2 km/h 11.3 km/h 88 % 0 mm
21:58 19.1 °C 17.1 °C 1004.6 hPa ESE 4.8 km/h 11.3 km/h 88 % 0 mm
22:04 19 °C 17.1 °C 1004.6 hPa East 6.4 km/h 11.3 km/h 89 % 0 mm
22:09 18.9 °C 17 °C 1004.6 hPa ESE 3.2 km/h 9.7 km/h 89 % 0 mm
22:14 18.8 °C 16.9 °C 1004.6 hPa ESE 4.8 km/h 9.7 km/h 89 % 0 mm
22:19 18.8 °C 17.1 °C 1004.6 hPa SE 6.4 km/h 9.7 km/h 90 % 0 mm
22:24 18.8 °C 17.3 °C 1004.3 hPa ESE 8 km/h 12.9 km/h 91 % 0 mm
22:29 18.8 °C 17.3 °C 1004.3 hPa East 6.4 km/h 12.9 km/h 91 % 0 mm
22:34 18.8 °C 17.3 °C 1004.3 hPa SE 9.7 km/h 12.9 km/h 91 % 0 mm
22:39 18.8 °C 17.3 °C 1004.3 hPa SE 6.4 km/h 11.3 km/h 91 % 0 mm
22:44 18.8 °C 17.3 °C 1004.3 hPa ESE 4.8 km/h 16.1 km/h 91 % 0 mm
22:49 18.7 °C 17.2 °C 1004.3 hPa SE 8 km/h 16.1 km/h 91 % 0 mm
22:54 18.8 °C 17.3 °C 1004.3 hPa SE 4.8 km/h 16.1 km/h 91 % 0 mm
22:59 18.8 °C 17.3 °C 1004.3 hPa SSE 8 km/h 14.5 km/h 91 % 0 mm
23:04 18.8 °C 17.3 °C 1004.3 hPa SSE 14.5 km/h 16.1 km/h 91 % 0 mm
23:09 18.7 °C 17.2 °C 1004.3 hPa SSE 9.7 km/h 16.1 km/h 91 % 0 mm
23:14 18.7 °C 17.4 °C 1004.3 hPa ESE 9.7 km/h 16.1 km/h 92 % 0 mm
23:19 18.7 °C 17.4 °C 1004.3 hPa SSE 6.4 km/h 16.1 km/h 92 % 0 mm
23:24 18.8 °C 17.5 °C 1003.9 hPa ESE 9.7 km/h 16.1 km/h 92 % 0 mm
23:29 18.8 °C 17.5 °C 1003.9 hPa SE 14.5 km/h 16.1 km/h 92 % 0 mm
23:34 18.8 °C 17.5 °C 1003.9 hPa ESE 9.7 km/h 16.1 km/h 92 % 0 mm
23:39 18.7 °C 17.4 °C 1003.9 hPa SSE 6.4 km/h 16.1 km/h 92 % 0 mm
23:44 18.7 °C 17.5 °C 1003.9 hPa SSE 6.4 km/h 16.1 km/h 93 % 0 mm
23:50 18.7 °C 17.5 °C 1003.9 hPa SSE 11.3 km/h 14.5 km/h 93 % 0 mm
23:55 18.7 °C 17.5 °C 1003.9 hPa SE 4.8 km/h 14.5 km/h 93 % 0 mm
Spring, Texas: Villages of Bridgestone
Compliments of Weather Underground - 2.75 mb

Script developed by  Jim McMurry - jmcmurry@mwt.net Adapted for the template by  Wim van der Kuil - Leuven-Template.eu

You find our weather info also at:

UK Metoffice

WeatherCloud

Weather Underground

Mid-South Weather Network

AWEKAS

Citizen Weather Observer Program (CWOP)

HAMweather, WeatherForYou, PWS Weather

Equipment we use:

Weather-station
Davis Vantage Vue

Weather-program
Meteohub

Weather-server
Debian 7.9 x86 (Guest)

Provider
DreamHost

Davis Vantage Vue

Meteohub

Debian 7.9 x86 (Guest)

DreamHost